Time;durP1;ratioP1;P1;durP2;ratioP2;P2;SDS_P1;SDS_P2;PMS_P1;PMS_P2;Temp;Humidity;BMP_temperature;BMP_pressure;BME280_temperature;BME280_humidity;BME280_pressure;Samples;Min_cycle;Max_cycle;Signal;HPM_P1;HPM_P2
2024/01/13 00:00:14;;;;;;;;;89.75;70.50;;;;;-0.68;57.92;100145.53;5061597;28;9017;-77
2024/01/13 00:03:04;;;;;;;;;91.33;70.00;;;;;-0.57;57.92;100148.50;5042325;28;8855;-82
2024/01/13 00:05:34;;;;;;;;;102.00;77.33;;;;;-0.66;57.54;100151.63;5028543;28;9048;-77
2024/01/13 00:08:04;;;;;;;;;90.33;73.00;;;;;-0.55;57.04;100152.00;4978523;28;9236;-77
2024/01/13 00:10:34;;;;;;;;;94.50;72.25;;;;;-0.46;57.36;100162.66;5060971;28;8945;-78
2024/01/13 00:13:03;;;;;;;;;93.00;72.67;;;;;-0.51;57.06;100175.38;5049613;28;8837;-80
2024/01/13 00:15:32;;;;;;;;;91.33;71.33;;;;;-0.56;56.88;100182.13;5039895;28;8953;-78
2024/01/13 00:18:01;;;;;;;;;89.25;71.25;;;;;-0.55;57.51;100183.88;5044498;28;8946;-78
2024/01/13 00:20:30;;;;;;;;;92.75;72.25;;;;;-0.43;56.93;100179.94;5044677;28;8860;-77
2024/01/13 00:23:01;;;;;;;;;96.00;72.67;;;;;-0.46;57.17;100172.09;4992026;28;8880;-78
2024/01/13 00:25:30;;;;;;;;;99.67;77.00;;;;;-0.56;57.23;100171.81;5021676;28;9081;-79
2024/01/13 00:27:59;;;;;;;;;95.67;75.00;;;;;-0.72;57.20;100178.13;5010367;28;9206;-79
2024/01/13 00:30:28;;;;;;;;;98.00;74.67;;;;;-1.14;58.36;100174.91;5014857;28;8919;-78
2024/01/13 00:32:57;;;;;;;;;94.50;73.75;;;;;-0.87;58.24;100164.69;5046282;28;9125;-79
2024/01/13 00:35:26;;;;;;;;;91.00;73.00;;;;;-1.05;57.58;100161.44;5024599;28;8869;-81
2024/01/13 00:37:56;;;;;;;;;90.00;70.50;;;;;-1.03;58.36;100171.00;5024643;28;9050;-81
2024/01/13 00:40:26;;;;;;;;;95.33;71.00;;;;;-1.06;58.30;100173.47;4975088;28;8878;-77
2024/01/13 00:42:55;;;;;;;;;92.00;72.75;;;;;-0.98;58.35;100174.59;5009333;28;8937;-77
2024/01/13 00:45:24;;;;;;;;;89.33;68.00;;;;;-1.25;58.77;100173.63;5008382;28;8870;-79
2024/01/13 00:47:53;;;;;;;;;85.50;69.00;;;;;-1.16;58.83;100182.56;5024093;28;8954;-80
2024/01/13 00:50:22;;;;;;;;;89.00;71.00;;;;;-1.10;58.42;100176.75;5024360;28;8955;-79
2024/01/13 00:52:52;;;;;;;;;89.25;68.00;;;;;-0.98;58.46;100168.56;5023175;28;8858;-77
2024/01/13 00:55:21;;;;;;;;;93.25;71.50;;;;;-0.95;58.48;100173.88;4991800;28;8858;-79
2024/01/13 00:57:51;;;;;;;;;94.00;73.00;;;;;-0.87;57.80;100195.66;5009958;28;8862;-83
2024/01/13 01:00:20;;;;;;;;;91.75;71.75;;;;;-1.21;58.14;100186.69;5011355;28;8973;-77
2024/01/13 01:02:49;;;;;;;;;91.25;71.00;;;;;-1.11;58.25;100178.47;5030003;28;8877;-79
2024/01/13 01:05:18;;;;;;;;;87.50;70.00;;;;;-0.93;57.93;100179.97;5008639;28;8865;-78
2024/01/13 01:07:48;;;;;;;;;90.75;69.50;;;;;-0.92;57.74;100174.84;5009361;28;8866;-78
2024/01/13 01:10:17;;;;;;;;;87.00;66.00;;;;;-0.78;57.90;100180.50;5007209;28;8884;-79
2024/01/13 01:12:46;;;;;;;;;85.00;66.75;;;;;-0.85;57.36;100180.22;5008426;28;8850;-79
2024/01/13 01:15:16;;;;;;;;;98.25;74.00;;;;;-0.85;57.65;100185.38;5014621;28;8857;-79
2024/01/13 01:17:45;;;;;;;;;91.75;69.75;;;;;-0.82;57.38;100186.38;5029793;28;8854;-78
2024/01/13 01:20:14;;;;;;;;;89.50;69.00;;;;;-0.90;57.17;100186.09;5009501;28;8878;-77
2024/01/13 01:22:43;;;;;;;;;87.00;67.50;;;;;-0.76;57.52;100181.41;5017337;28;8862;-77
2024/01/13 01:25:12;;;;;;;;;85.25;68.50;;;;;-0.73;57.15;100171.22;5048466;28;8850;-79
2024/01/13 01:27:41;;;;;;;;;85.00;66.25;;;;;-0.87;57.05;100168.97;5048492;28;8954;-79
2024/01/13 01:30:12;;;;;;;;;87.25;67.00;;;;;-0.86;57.23;100156.13;5048675;28;8842;-79
2024/01/13 01:32:43;;;;;;;;;90.00;70.00;;;;;-0.80;57.32;100160.63;5032552;28;8847;-79
2024/01/13 01:35:12;;;;;;;;;91.00;68.50;;;;;-0.73;56.79;100158.31;5049423;28;8859;-79
2024/01/13 01:37:41;;;;;;;;;89.00;69.00;;;;;-1.10;57.71;100158.72;5051702;28;8861;-79
2024/01/13 01:40:15;;;;;;;;;85.00;67.25;;;;;-0.77;57.47;100155.56;5055104;28;8857;-78
2024/01/13 01:42:45;;;;;;;;;84.00;64.50;;;;;-0.75;57.26;100159.06;5052285;28;8862;-77
2024/01/13 01:45:13;;;;;;;;;88.25;65.25;;;;;-0.79;56.87;100160.66;5013853;28;8989;-80
2024/01/13 01:47:46;;;;;;;;;90.00;70.25;;;;;-0.61;56.97;100159.56;5064229;28;8844;-81
2024/01/13 01:50:15;;;;;;;;;87.50;68.00;;;;;-0.59;56.67;100153.59;5053847;28;8856;-80
2024/01/13 01:52:44;;;;;;;;;86.00;66.75;;;;;-0.83;56.44;100156.22;5071822;28;8832;-78
2024/01/13 01:55:14;;;;;;;;;82.75;64.50;;;;;-0.65;56.83;100150.81;5070833;28;8863;-81
2024/01/13 01:57:43;;;;;;;;;81.75;66.75;;;;;-0.59;55.81;100157.91;5072112;28;8835;-77
2024/01/13 02:00:13;;;;;;;;;87.00;68.75;;;;;-0.88;57.22;100157.78;5071769;28;8836;-80
2024/01/13 02:02:44;;;;;;;;;85.25;67.25;;;;;-0.85;56.93;100175.94;5069212;28;8853;-78
2024/01/13 02:05:14;;;;;;;;;76.50;63.75;;;;;-0.86;56.89;100168.13;5064012;28;8846;-80
2024/01/13 02:07:44;;;;;;;;;85.00;66.50;;;;;-0.74;56.95;100153.09;5032772;28;8952;-80
2024/01/13 02:10:13;;;;;;;;;90.00;68.25;;;;;-0.74;56.86;100147.94;5072613;28;8890;-78
2024/01/13 02:12:42;;;;;;;;;88.75;68.25;;;;;-1.30;58.24;100148.56;5020422;28;8851;-79
2024/01/13 02:15:11;;;;;;;;;82.00;63.25;;;;;-1.07;57.41;100145.03;5069334;28;9020;-80
2024/01/13 02:17:41;;;;;;;;;88.25;65.75;;;;;-1.09;57.53;100155.28;5052434;28;8850;-81
2024/01/13 02:20:12;;;;;;;;;87.25;67.75;;;;;-1.57;59.39;100160.41;4999986;28;8842;-81
2024/01/13 02:22:43;;;;;;;;;77.00;61.75;;;;;-1.58;59.55;100156.94;5034174;28;8852;-81
2024/01/13 02:25:12;;;;;;;;;83.50;66.25;;;;;-1.63;59.36;100148.16;5071368;28;8860;-79
2024/01/13 02:27:41;;;;;;;;;87.00;70.00;;;;;-1.40;58.88;100146.44;5053238;28;8848;-79
2024/01/13 02:30:11;;;;;;;;;81.50;65.75;;;;;-1.36;59.11;100148.31;5053769;28;9053;-79
2024/01/13 02:32:40;;;;;;;;;83.25;66.25;;;;;-1.37;58.69;100143.06;5049612;28;8914;-79
2024/01/13 02:35:09;;;;;;;;;58.25;52.00;;;;;-1.30;58.19;100137.34;5033761;28;8935;-78
2024/01/13 02:37:39;;;;;;;;;89.25;68.00;;;;;-1.55;58.79;100127.81;5054505;28;8881;-79
2024/01/13 02:40:10;;;;;;;;;82.25;64.75;;;;;-1.75;59.61;100132.22;5053274;28;8900;-78
2024/01/13 02:42:40;;;;;;;;;83.75;65.00;;;;;-1.88;59.93;100121.44;5050638;28;9692;-77
2024/01/13 02:45:09;;;;;;;;;88.75;68.25;;;;;-2.16;61.38;100140.09;5034947;28;8857;-76
2024/01/13 02:47:43;;;;;;;;;86.50;68.50;;;;;-2.16;61.41;100134.06;5056177;28;8884;-80
2024/01/13 02:50:13;;;;;;;;;83.75;67.25;;;;;-2.09;61.43;100134.38;5048875;28;8949;-78
2024/01/13 02:52:44;;;;;;;;;77.50;63.50;;;;;-2.50;62.70;100122.41;5052892;28;8866;-78
2024/01/13 02:55:14;;;;;;;;;82.00;64.00;;;;;-2.04;61.55;100120.78;5052181;28;8842;-79
2024/01/13 02:57:43;;;;;;;;;85.50;66.75;;;;;-1.87;60.57;100106.84;5066545;28;9576;-77
2024/01/13 03:00:13;;;;;;;;;88.25;68.75;;;;;-2.01;60.70;100103.75;5051827;28;8888;-80
2024/01/13 03:02:43;;;;;;;;;85.75;68.50;;;;;-1.93;60.63;100102.34;5016487;28;8959;-79
2024/01/13 03:05:13;;;;;;;;;89.50;68.50;;;;;-1.76;59.91;100100.41;5050314;28;8850;-77
2024/01/13 03:07:42;;;;;;;;;91.50;72.25;;;;;-1.66;59.99;100098.19;5002003;28;8851;-78
2024/01/13 03:10:11;;;;;;;;;85.00;66.75;;;;;-2.26;60.84;100096.75;5070821;28;8832;-79
2024/01/13 03:12:41;;;;;;;;;86.50;66.00;;;;;-2.15;61.27;100095.47;5074066;28;8836;-79
2024/01/13 03:15:11;;;;;;;;;78.00;64.25;;;;;-1.96;60.40;100085.88;5078089;28;8875;-79
2024/01/13 03:17:41;;;;;;;;;81.50;67.25;;;;;-1.70;59.81;100092.91;5070389;28;8856;-77
2024/01/13 03:20:11;;;;;;;;;82.25;65.50;;;;;-1.62;59.37;100085.44;5063182;28;8894;-78
2024/01/13 03:22:40;;;;;;;;;89.25;69.25;;;;;-1.50;59.43;100082.47;5032310;28;8836;-81
2024/01/13 03:25:09;;;;;;;;;82.25;66.75;;;;;-1.41;59.12;100087.06;5036768;28;8881;-75
2024/01/13 03:27:38;;;;;;;;;88.75;68.00;;;;;-1.91;60.38;100086.94;5057995;28;8888;-79
2024/01/13 03:30:10;;;;;;;;;84.67;68.67;;;;;-1.60;59.62;100090.66;5063770;28;8961;-77
2024/01/13 03:32:39;;;;;;;;;96.25;73.50;;;;;-1.88;59.98;100084.50;5055854;28;9805;-77
2024/01/13 03:35:09;;;;;;;;;87.75;66.75;;;;;-1.82;59.89;100089.88;5040461;28;8872;-77
2024/01/13 03:37:38;;;;;;;;;92.25;72.25;;;;;-2.05;60.19;100101.88;5012054;28;8871;-79
2024/01/13 03:40:08;;;;;;;;;82.50;67.00;;;;;-2.18;60.96;100103.09;5011696;28;8848;-78
2024/01/13 03:42:37;;;;;;;;;91.00;66.75;;;;;-1.88;60.14;100092.22;5027301;28;8876;-79
2024/01/13 03:45:07;;;;;;;;;91.50;70.50;;;;;-1.93;60.82;100092.03;5027513;28;8922;-80
2024/01/13 03:47:38;;;;;;;;;89.00;66.75;;;;;-1.81;60.71;100085.59;5027008;28;8860;-80
2024/01/13 03:50:08;;;;;;;;;88.25;69.50;;;;;-2.00;60.48;100089.16;5028520;28;8875;-78
2024/01/13 03:52:37;;;;;;;;;76.25;60.00;;;;;-1.96;60.35;100078.16;5013071;28;8860;-78
2024/01/13 03:55:07;;;;;;;;;83.75;65.75;;;;;-1.71;60.25;100078.28;5041595;28;8844;-78
2024/01/13 03:57:36;;;;;;;;;11.75;2.50;;;;;-1.74;60.25;100066.97;4997025;28;8836;-79
2024/01/13 04:00:14;;;;;;;;;82.50;66.25;;;;;-1.68;59.72;100059.47;5033489;28;8894;-80
2024/01/13 04:02:45;;;;;;;;;91.75;68.75;;;;;-1.85;60.16;100066.56;5030621;28;8867;-78
2024/01/13 04:05:14;;;;;;;;;85.00;67.25;;;;;-1.90;60.44;100062.91;5029458;28;8844;-79
2024/01/13 04:07:44;;;;;;;;;83.75;63.75;;;;;-1.80;60.01;100059.03;5029132;28;8952;-78
2024/01/13 04:10:13;;;;;;;;;89.50;68.25;;;;;-1.78;59.65;100058.25;5028927;28;8851;-80
2024/01/13 04:12:45;;;;;;;;;83.25;63.50;;;;;-1.59;59.38;100052.06;5027000;28;8863;-81
2024/01/13 04:15:14;;;;;;;;;88.75;70.75;;;;;-1.58;59.61;100050.34;4990284;28;8907;-78
2024/01/13 04:17:43;;;;;;;;;83.25;66.00;;;;;-1.83;59.49;100051.16;5006772;28;8874;-79
2024/01/13 04:20:13;;;;;;;;;79.50;63.50;;;;;-1.73;58.92;100051.56;5006877;28;8883;-77
2024/01/13 04:22:43;;;;;;;;;82.25;63.75;;;;;-1.71;59.08;100042.19;5025357;28;8835;-79
2024/01/13 04:25:12;;;;;;;;;62.75;49.75;;;;;-2.08;59.64;100045.97;5045983;28;9693;-78
2024/01/13 04:27:41;;;;;;;;;80.50;63.00;;;;;-2.90;63.20;100059.88;5046354;28;8854;-78
2024/01/13 04:30:10;;;;;;;;;84.25;65.50;;;;;-2.64;62.55;100066.91;5021731;28;8846;-80
2024/01/13 04:32:40;;;;;;;;;90.75;68.25;;;;;-2.43;61.81;100067.78;4980092;28;8860;-78
2024/01/13 04:35:09;;;;;;;;;85.00;67.00;;;;;-2.20;60.95;100065.19;5010846;28;8845;-79
2024/01/13 04:37:40;;;;;;;;;84.00;65.25;;;;;-2.29;60.76;100076.91;5022068;28;8850;-78
2024/01/13 04:40:09;;;;;;;;;84.00;66.00;;;;;-2.21;60.54;100066.03;5029944;28;8988;-80
2024/01/13 04:42:39;;;;;;;;;81.75;66.00;;;;;-2.38;61.36;100080.81;5012319;28;8872;-79
2024/01/13 04:45:09;;;;;;;;;88.50;69.25;;;;;-2.87;62.86;100077.97;5005565;28;8882;-78
2024/01/13 04:47:38;;;;;;;;;82.25;66.25;;;;;-3.18;63.77;100080.09;4995600;28;8866;-78
2024/01/13 04:50:08;;;;;;;;;84.75;66.75;;;;;-2.84;63.18;100078.97;4998696;28;8905;-77
2024/01/13 04:52:37;;;;;;;;;84.25;65.00;;;;;-2.58;62.07;100078.34;5017255;28;8967;-78
2024/01/13 04:55:08;;;;;;;;;88.00;67.75;;;;;-2.78;62.74;100069.78;5019514;28;8857;-77
2024/01/13 04:57:38;;;;;;;;;86.50;66.75;;;;;-2.98;63.38;100068.94;5013523;28;8857;-78
2024/01/13 05:00:08;;;;;;;;;86.00;67.50;;;;;-2.68;62.39;100065.88;4994376;28;8853;-79
2024/01/13 05:02:37;;;;;;;;;78.75;62.00;;;;;-2.53;61.75;100065.63;4958377;28;8865;-77
2024/01/13 05:05:17;;;;;;;;;84.25;66.00;;;;;-2.45;61.42;100059.09;4987732;28;8953;-79
2024/01/13 05:07:46;;;;;;;;;78.25;62.75;;;;;-2.18;60.79;100056.72;5003694;28;8861;-77
2024/01/13 05:10:16;;;;;;;;;83.50;66.25;;;;;-2.50;61.88;100053.78;4985311;28;8959;-78
2024/01/13 05:12:45;;;;;;;;;83.25;66.50;;;;;-2.28;61.03;100049.44;4947811;28;8860;-78
2024/01/13 05:15:14;;;;;;;;;98.67;73.00;;;;;-2.16;60.30;100043.94;5031240;28;8899;-77
2024/01/13 05:17:43;;;;;;;;;86.75;69.00;;;;;-2.42;61.06;100043.78;5010641;28;8958;-77
2024/01/13 05:20:12;;;;;;;;;85.00;65.75;;;;;-2.21;60.45;100046.31;4993901;28;8949;-78
2024/01/13 05:22:41;;;;;;;;;86.50;68.00;;;;;-2.23;59.99;100044.50;5028228;28;8871;-79
2024/01/13 05:25:16;;;;;;;;;91.50;67.50;;;;;-2.34;60.94;100047.50;4999017;28;9699;-79
2024/01/13 05:27:46;;;;;;;;;81.75;64.75;;;;;-2.17;60.19;100048.16;5024260;28;8834;-81
2024/01/13 05:30:15;;;;;;;;;84.00;64.50;;;;;-2.20;60.12;100040.34;5064164;28;8850;-77
2024/01/13 05:32:44;;;;;;;;;86.00;67.25;;;;;-2.12;59.98;100035.50;5054712;28;8853;-77
2024/01/13 05:35:14;;;;;;;;;88.75;67.50;;;;;-2.53;60.75;100035.63;5043898;28;8995;-78
2024/01/13 05:37:43;;;;;;;;;84.00;65.25;;;;;-2.29;60.28;100033.13;5055665;28;8855;-78
2024/01/13 05:40:13;;;;;;;;;90.00;68.25;;;;;-2.21;60.37;100046.31;5032494;28;9004;-79
2024/01/13 05:42:43;;;;;;;;;85.00;69.50;;;;;-2.21;59.56;100037.72;5050838;28;8839;-79
2024/01/13 05:45:12;;;;;;;;;80.50;62.75;;;;;-2.26;60.52;100047.81;5047523;28;8871;-78
2024/01/13 05:47:42;;;;;;;;;76.25;62.75;;;;;-2.01;59.62;100043.63;5046710;28;8840;-80
2024/01/13 05:50:11;;;;;;;;;76.50;60.25;;;;;-1.89;59.00;100047.53;4980981;28;8867;-78
2024/01/13 05:52:40;;;;;;;;;96.67;75.00;;;;;-1.71;58.99;100038.75;5032153;28;9589;-78
2024/01/13 05:55:09;;;;;;;;;107.50;87.75;;;;;-1.77;58.45;100049.72;5032077;28;9345;-78
2024/01/13 05:57:38;;;;;;;;;80.25;61.75;;;;;-1.79;58.68;100046.16;5038542;28;9873;-80
2024/01/13 06:00:10;;;;;;;;;82.00;65.00;;;;;-1.88;59.21;100036.41;5049707;28;8860;-78
2024/01/13 06:02:39;;;;;;;;;83.50;66.00;;;;;-1.91;59.06;100054.31;5022202;28;9652;-79
2024/01/13 06:05:09;;;;;;;;;71.00;59.50;;;;;-2.36;59.53;100053.44;5047692;28;8969;-80
2024/01/13 06:07:38;;;;;;;;;87.00;67.00;;;;;-2.21;58.98;100042.84;5030305;28;8859;-79
2024/01/13 06:10:12;;;;;;;;;92.33;71.67;;;;;-2.38;59.85;100058.50;5030199;28;8875;-80
2024/01/13 06:12:41;;;;;;;;;96.67;73.33;;;;;-2.30;59.65;100049.41;5031163;28;10024;-81
2024/01/13 06:15:12;;;;;;;;;75.00;60.00;;;;;-2.43;59.91;100054.00;5050472;28;9042;-79
2024/01/13 06:17:42;;;;;;;;;84.00;65.00;;;;;-2.30;59.81;100058.81;5053702;28;8859;-78
2024/01/13 06:20:11;;;;;;;;;82.25;64.75;;;;;-2.52;60.21;100049.38;5012328;28;9692;-79
2024/01/13 06:22:40;;;;;;;;;84.00;63.00;;;;;-2.32;59.81;100057.88;5034369;28;8858;-78
2024/01/13 06:25:10;;;;;;;;;74.00;61.25;;;;;-2.38;60.08;100057.66;5050779;28;8862;-80
2024/01/13 06:27:39;;;;;;;;;86.50;66.75;;;;;-2.42;59.75;100060.94;5065952;28;8846;-79
2024/01/13 06:30:10;;;;;;;;;85.50;66.75;;;;;-2.63;60.40;100054.09;5051869;28;8830;-78
2024/01/13 06:32:42;;;;;;;;;88.33;69.67;;;;;-2.70;61.14;100062.38;5031889;28;8846;-78
2024/01/13 06:35:11;;;;;;;;;88.50;70.00;;;;;-2.46;60.20;100055.66;5032646;28;8964;-79
2024/01/13 06:37:40;;;;;;;;;93.00;73.33;;;;;-2.46;60.14;100053.06;5066019;28;8852;-79
2024/01/13 06:40:10;;;;;;;;;85.25;66.50;;;;;-2.23;59.04;100044.50;5048226;28;9209;-82
2024/01/13 06:42:39;;;;;;;;;79.75;63.25;;;;;-2.07;58.82;100054.59;5032997;28;8862;-79
2024/01/13 06:45:09;;;;;;;;;84.25;63.75;;;;;-2.31;59.25;100049.34;4994385;28;8967;-78
2024/01/13 06:47:38;;;;;;;;;66.50;49.00;;;;;-2.37;59.76;100042.25;5075560;28;8860;-78
2024/01/13 06:50:09;;;;;;;;;83.75;64.25;;;;;-2.28;59.45;100052.03;5068779;28;8878;-79
2024/01/13 06:52:39;;;;;;;;;81.00;64.50;;;;;-2.56;59.77;100053.53;5074376;28;8872;-78
2024/01/13 06:55:08;;;;;;;;;83.50;65.00;;;;;-2.42;59.27;100061.78;5031348;28;8980;-79
2024/01/13 06:57:38;;;;;;;;;84.75;65.75;;;;;-2.62;60.40;100055.84;5059338;28;8896;-78
2024/01/13 07:00:08;;;;;;;;;82.50;66.00;;;;;-2.35;59.39;100048.34;5049006;28;8865;-77
2024/01/13 07:02:37;;;;;;;;;81.50;66.25;;;;;-2.18;58.80;100054.16;5031213;28;8888;-77
2024/01/13 07:05:10;;;;;;;;;80.50;61.75;;;;;-1.92;58.88;100054.25;5011120;28;8861;-79
2024/01/13 07:07:40;;;;;;;;;81.00;65.50;;;;;-2.38;58.46;100055.06;4998805;28;8856;-79
2024/01/13 07:10:09;;;;;;;;;80.75;63.50;;;;;-2.55;60.23;100051.81;5050545;28;8885;-78
2024/01/13 07:12:38;;;;;;;;;82.75;66.50;;;;;-2.41;59.27;100055.84;5038981;28;9615;-79
2024/01/13 07:15:08;;;;;;;;;74.00;61.50;;;;;-2.22;59.47;100060.00;5057259;28;8862;-78
2024/01/13 07:17:37;;;;;;;;;88.00;65.75;;;;;-2.28;58.79;100064.91;5039476;28;8904;-78
2024/01/13 07:20:09;;;;;;;;;78.75;60.75;;;;;-2.12;58.80;100061.25;5070450;28;8859;-78
2024/01/13 07:22:38;;;;;;;;;84.75;64.00;;;;;-1.82;58.60;100061.53;5034718;28;8844;-78
2024/01/13 07:25:08;;;;;;;;;76.25;63.00;;;;;-1.58;57.67;100050.34;5070238;28;8894;-80
2024/01/13 07:27:37;;;;;;;;;81.75;63.00;;;;;-1.39;57.18;100062.22;5069720;28;9696;-82
2024/01/13 07:30:08;;;;;;;;;84.75;64.50;;;;;-1.29;56.83;100054.84;5068396;28;8824;-81
2024/01/13 07:32:37;;;;;;;;;78.50;64.00;;;;;-1.14;56.47;100054.53;5069546;28;8980;-80
2024/01/13 07:35:07;;;;;;;;;79.50;59.00;;;;;-1.05;55.74;100046.22;5065014;28;8862;-81
2024/01/13 07:37:39;;;;;;;;;77.50;60.75;;;;;-1.19;54.94;100065.50;5031871;28;9639;-80
2024/01/13 07:40:09;;;;;;;;;78.25;63.50;;;;;-1.14;54.95;100062.25;5064533;28;8909;-77
2024/01/13 07:42:39;;;;;;;;;82.75;64.00;;;;;-1.19;55.50;100073.25;5036685;28;9599;-82
2024/01/13 07:45:28;;;;;;;;;71.25;59.00;;;;;-1.06;54.96;100071.97;5010130;28;8906;-80
2024/01/13 07:47:57;;;;;;;;;80.25;64.00;;;;;-1.57;56.22;100077.91;5021390;28;8925;-80
2024/01/13 07:50:26;;;;;;;;;82.00;62.00;;;;;-1.23;55.51;100072.25;4989995;28;9000;-80
2024/01/13 07:52:57;;;;;;;;;76.00;61.00;;;;;-1.50;56.65;100080.75;4955884;28;8842;-81
2024/01/13 07:55:26;;;;;;;;;68.25;57.25;;;;;-1.26;56.12;100086.75;4990181;28;8992;-79
2024/01/13 07:57:55;;;;;;;;;80.00;64.25;;;;;-1.04;55.83;100088.38;4972449;28;8912;-78
2024/01/13 08:00:25;;;;;;;;;73.75;61.00;;;;;-1.16;55.48;100091.41;5013844;28;8922;-79
2024/01/13 08:02:55;;;;;;;;;82.00;64.00;;;;;-1.11;55.25;100087.28;5031590;28;8901;-78
2024/01/13 08:05:24;;;;;;;;;73.75;57.25;;;;;-1.19;55.83;100084.44;5042795;28;8829;-78
2024/01/13 08:07:54;;;;;;;;;76.50;59.75;;;;;-1.02;55.24;100079.84;5041224;28;8954;-77
2024/01/13 08:10:24;;;;;;;;;77.50;61.75;;;;;-0.75;55.09;100082.53;5028238;28;9621;-78
2024/01/13 08:12:53;;;;;;;;;83.75;65.00;;;;;-1.10;54.84;100082.19;5027451;28;8892;-79
2024/01/13 08:15:22;;;;;;;;;77.75;61.75;;;;;-0.83;54.40;100081.38;5033311;28;8866;-79
2024/01/13 08:17:51;;;;;;;;;70.50;60.25;;;;;-1.03;54.49;100079.81;5046375;28;8862;-79
2024/01/13 08:20:20;;;;;;;;;72.75;61.25;;;;;-0.97;54.34;100082.63;5013203;28;8996;-78
2024/01/13 08:22:50;;;;;;;;;73.50;59.75;;;;;-1.07;55.22;100077.94;5029552;28;8870;-79
2024/01/13 08:25:19;;;;;;;;;79.50;64.25;;;;;-1.12;54.30;100078.66;5012916;28;8970;-80
2024/01/13 08:27:50;;;;;;;;;77.50;63.00;;;;;-0.99;54.86;100079.09;5011941;28;8976;-78
2024/01/13 08:30:19;;;;;;;;;78.00;64.00;;;;;-0.88;54.67;100084.63;5026534;28;8911;-79
2024/01/13 08:32:48;;;;;;;;;83.50;65.50;;;;;-0.87;54.76;100084.66;5011198;28;8986;-82
2024/01/13 08:35:17;;;;;;;;;80.75;61.50;;;;;-0.66;54.41;100086.22;5016628;28;8880;-71
2024/01/13 08:37:47;;;;;;;;;80.50;63.50;;;;;-0.63;53.62;100091.50;5066108;28;8863;-78
2024/01/13 08:40:15;;;;;;;;;78.25;62.00;;;;;-0.64;53.86;100084.56;5022901;28;8998;-78
2024/01/13 08:42:47;;;;;;;;;76.25;60.00;;;;;-0.54;53.49;100079.75;5049934;28;8844;-79
2024/01/13 08:45:19;;;;;;;;;77.00;60.75;;;;;-0.42;53.40;100081.84;5063455;28;8852;-79
2024/01/13 08:47:48;;;;;;;;;80.50;64.00;;;;;-0.33;53.65;100081.28;5057680;28;8846;-79
2024/01/13 08:50:17;;;;;;;;;77.50;63.50;;;;;-0.21;53.16;100083.38;5048407;28;8978;-78
2024/01/13 08:52:48;;;;;;;;;75.25;61.25;;;;;-0.09;53.30;100081.16;5048849;28;8854;-80
2024/01/13 08:55:17;;;;;;;;;77.75;63.25;;;;;0.01;52.88;100078.03;5059798;28;8872;-82
2024/01/13 08:57:47;;;;;;;;;80.50;64.25;;;;;-0.21;53.04;100091.13;5064507;28;8858;-81
2024/01/13 09:00:18;;;;;;;;;76.25;62.00;;;;;-1.01;53.57;100099.69;5024941;28;9780;-80
2024/01/13 09:02:48;;;;;;;;;77.00;62.75;;;;;-0.65;53.64;100094.03;5062484;28;8890;-82
2024/01/13 09:05:17;;;;;;;;;78.00;62.25;;;;;-0.39;53.33;100105.22;5076371;28;8836;-83
2024/01/13 09:07:46;;;;;;;;;76.50;62.25;;;;;-0.44;53.34;100103.31;5042626;28;8840;-82
2024/01/13 09:10:16;;;;;;;;;85.25;65.50;;;;;-1.46;55.12;100109.25;5018247;28;8835;-81
2024/01/13 09:12:45;;;;;;;;;83.50;64.25;;;;;-1.06;55.07;100103.81;5032296;28;8901;-82
2024/01/13 09:15:14;;;;;;;;;80.00;64.25;;;;;-0.97;54.42;100095.53;5001047;28;8876;-81
2024/01/13 09:17:44;;;;;;;;;85.25;63.75;;;;;-1.01;54.04;100093.63;4997779;28;8870;-80
2024/01/13 09:20:13;;;;;;;;;81.75;62.75;;;;;-0.99;54.53;100090.28;5010535;28;8887;-80
2024/01/13 09:22:42;;;;;;;;;79.50;64.00;;;;;-0.87;54.47;100092.41;5010052;28;8898;-79
2024/01/13 09:25:12;;;;;;;;;85.25;65.25;;;;;-0.76;53.94;100095.38;4990700;28;8873;-81
2024/01/13 09:27:41;;;;;;;;;84.25;63.50;;;;;-0.63;53.25;100104.41;5007904;28;8852;-81
2024/01/13 09:30:11;;;;;;;;;79.00;63.75;;;;;-0.91;53.34;100103.47;5006466;28;8883;-81
2024/01/13 09:32:45;;;;;;;;;77.25;62.25;;;;;-0.64;53.87;100084.56;5001687;28;9025;-81
2024/01/13 09:35:14;;;;;;;;;82.75;64.75;;;;;-0.54;53.22;100084.94;4992267;28;8871;-80
2024/01/13 09:37:43;;;;;;;;;75.50;61.00;;;;;-0.86;53.74;100089.03;5009660;28;8867;-78
2024/01/13 09:40:15;;;;;;;;;80.50;64.00;;;;;-0.51;53.64;100074.69;5009460;28;8859;-81
2024/01/13 09:42:51;;;;;;;;;80.25;63.00;;;;;-0.77;53.07;100076.41;5063703;28;8868;-80
2024/01/13 09:45:22;;;;;;;;;75.25;61.75;;;;;-0.74;53.48;100068.78;5059440;28;9066;-82
2024/01/13 09:47:54;;;;;;;;;81.75;61.00;;;;;-0.39;53.23;100063.00;5055470;28;8859;-79
2024/01/13 09:50:23;;;;;;;;;76.75;62.75;;;;;-0.84;53.62;100065.81;5030131;28;8924;-81
2024/01/13 09:52:52;;;;;;;;;75.75;61.75;;;;;-0.51;53.23;100054.03;5050869;28;8865;-80
2024/01/13 09:55:22;;;;;;;;;73.75;61.25;;;;;-0.34;52.67;100051.97;5048646;28;8853;-80
2024/01/13 09:57:51;;;;;;;;;78.50;64.50;;;;;-0.18;52.46;100058.50;5061360;28;8909;-80
2024/01/13 10:00:21;;;;;;;;;75.50;63.25;;;;;-0.11;52.20;100052.69;5073843;28;8877;-81
2024/01/13 10:02:50;;;;;;;;;81.25;61.50;;;;;-0.18;52.11;100055.03;5043963;28;8933;-80
2024/01/13 10:05:20;;;;;;;;;79.50;63.25;;;;;0.04;51.62;100049.69;5046412;28;8861;-81
2024/01/13 10:07:53;;;;;;;;;75.75;62.25;;;;;-0.74;53.21;100057.56;5051292;28;9622;-81
2024/01/13 10:10:25;;;;;;;;;76.00;60.75;;;;;-0.57;52.62;100056.41;5066216;28;8888;-81
2024/01/13 10:12:54;;;;;;;;;78.50;59.75;;;;;-0.32;52.50;100059.78;5062096;28;9008;-81
2024/01/13 10:15:23;;;;;;;;;74.50;60.00;;;;;-0.08;51.96;100056.22;5037976;28;8876;-81
2024/01/13 10:17:54;;;;;;;;;76.00;60.75;;;;;0.14;51.64;100060.28;5014849;28;8990;-79
2024/01/13 10:20:25;;;;;;;;;80.00;63.75;;;;;-0.34;51.79;100070.06;5005188;28;8984;-81
2024/01/13 10:22:55;;;;;;;;;74.50;63.00;;;;;-0.31;51.75;100065.00;5050950;28;8946;-81
2024/01/13 10:25:25;;;;;;;;;81.25;64.25;;;;;-0.09;51.40;100063.06;5038358;28;8886;-80
2024/01/13 10:27:57;;;;;;;;;74.50;61.25;;;;;0.07;51.47;100064.41;4982623;28;8943;-82
2024/01/13 10:30:27;;;;;;;;;72.75;59.50;;;;;0.23;51.27;100057.97;4986793;28;8832;-79
2024/01/13 10:32:58;;;;;;;;;74.75;57.75;;;;;0.24;50.75;100046.81;5025598;28;8872;-78
2024/01/13 10:35:30;;;;;;;;;81.00;63.25;;;;;0.34;50.61;100046.25;5027798;28;8904;-77
2024/01/13 10:37:59;;;;;;;;;68.50;53.25;;;;;0.50;50.52;100041.50;5010437;28;8893;-77
2024/01/13 10:40:28;;;;;;;;;76.25;58.75;;;;;0.57;49.92;100033.09;5028048;28;8860;-77
2024/01/13 10:43:04;;;;;;;;;74.00;59.75;;;;;0.73;49.21;100029.19;5012132;28;8888;-77
2024/01/13 10:45:40;;;;;;;;;74.50;60.50;;;;;0.57;49.46;100040.84;5011051;28;8895;-79
2024/01/13 10:48:17;;;;;;;;;80.50;61.75;;;;;0.82;49.92;100035.50;5020954;28;9503;-78
2024/01/13 10:50:51;;;;;;;;;79.25;60.25;;;;;0.90;49.73;100033.13;4978704;28;8852;-78
2024/01/13 10:53:26;;;;;;;;;81.00;63.25;;;;;0.91;49.54;100033.97;5027347;28;9766;-77
2024/01/13 10:55:59;;;;;;;;;84.75;65.25;;;;;0.92;49.34;100031.44;4994727;28;8868;-77
2024/01/13 10:58:28;;;;;;;;;74.75;59.25;;;;;0.95;49.36;100023.78;5028279;28;8923;-78
2024/01/13 11:00:57;;;;;;;;;72.25;59.00;;;;;1.03;49.38;100011.91;4988022;28;8891;-78
2024/01/13 11:03:27;;;;;;;;;80.25;65.00;;;;;1.10;49.40;100009.47;4994816;28;8871;-78
2024/01/13 11:05:58;;;;;;;;;70.00;55.75;;;;;1.09;49.64;100007.72;4999019;28;8950;-79
2024/01/13 11:08:27;;;;;;;;;77.00;62.25;;;;;1.17;49.22;100004.50;5013364;28;8856;-79
2024/01/13 11:11:00;;;;;;;;;78.50;61.50;;;;;1.31;48.55;99991.84;5028216;28;8864;-80
2024/01/13 11:13:33;;;;;;;;;77.75;60.50;;;;;1.38;48.55;99979.94;5009330;28;8864;-78
2024/01/13 11:16:07;;;;;;;;;77.50;61.25;;;;;1.34;47.81;99978.13;4999722;28;8872;-77
2024/01/13 11:18:38;;;;;;;;;77.00;58.50;;;;;1.39;48.84;99976.50;4984387;28;8872;-78
2024/01/13 11:21:10;;;;;;;;;76.50;62.00;;;;;1.45;47.70;99974.06;4968168;28;8883;-77
2024/01/13 11:23:41;;;;;;;;;76.25;62.50;;;;;1.46;48.11;99970.63;4967369;28;8869;-78
2024/01/13 11:26:11;;;;;;;;;72.00;59.50;;;;;1.48;48.05;99970.66;4967671;28;8865;-80
2024/01/13 11:28:48;;;;;;;;;78.00;62.25;;;;;1.63;48.47;99968.41;4977565;28;8850;-78
2024/01/13 11:31:30;;;;;;;;;75.00;61.50;;;;;1.83;47.57;99963.69;4976642;28;8881;-78